Country
Station

 

Weather  for  Gore Bay, Ont.  -  Canada    Canada

  
8 °C (46 °F)
    
 
 

Current METAR for Gore Bay, Ont. is :

CYZE 161304Z AUTO 06011G16KT 9SM -RA OVC011 08/07 A2952 RMK SLP004

 

This is a report for Gore Bay, Ont. - Canada.
 
The report was made a moment ago, at 13:04 UTC .
The wind was blowing at a speed of 5.7 meters per second (12.7 miles per hour) with gusts up to 8.2 meters per second (18.4 miles per hour) from east/northeast (060°).
 
The temperature was 8 °C (46 °F), with a dew-point at 7 °C (45 °F).
The atmospheric pressure was 1000 hPa (29.52 inHg).
The relative humidity was 93.4%.
 
The sky was overcast from a height of 335 meter (1100 feet)
 
The overall visibility was 14.5 kilometers (9.0 miles).
 
Currently light rain.

 
 
 
 

Country :   A   B   C   D   E   F   G   H   I   J   K   L   M   N   O   P   Q   R   S   T   U   V   W   Y   Z

 

Site Info  |  Disclaimer  |  Credits  |  Privacy
Contact us  |  Add to favorites
© 2013-2019 METARs - All rights reserved